sensor_id;sensor_type;location;lat;lon;timestamp;P1;durP1;ratioP1;P2;durP2;ratioP2
5951;SDS011;3001;42.622;23.194;2023-07-13T00:01:26;5.93;;;3.77;;
5951;SDS011;3001;42.622;23.194;2023-07-13T00:03:52;3.73;;;3.40;;
5951;SDS011;3001;42.622;23.194;2023-07-13T00:06:20;19.13;;;4.37;;
5951;SDS011;3001;42.622;23.194;2023-07-13T00:08:47;3.40;;;3.10;;
5951;SDS011;3001;42.622;23.194;2023-07-13T00:11:15;5.40;;;3.10;;
5951;SDS011;3001;42.622;23.194;2023-07-13T00:13:42;3.27;;;3.07;;
5951;SDS011;3001;42.622;23.194;2023-07-13T00:16:10;3.67;;;3.47;;
5951;SDS011;3001;42.622;23.194;2023-07-13T00:18:39;4.13;;;3.83;;
5951;SDS011;3001;42.622;23.194;2023-07-13T00:21:06;4.97;;;3.40;;
5951;SDS011;3001;42.622;23.194;2023-07-13T00:23:35;3.83;;;3.63;;
5951;SDS011;3001;42.622;23.194;2023-07-13T00:26:03;4.53;;;4.13;;
5951;SDS011;3001;42.622;23.194;2023-07-13T00:28:31;3.90;;;3.47;;
5951;SDS011;3001;42.622;23.194;2023-07-13T00:30:58;3.93;;;3.73;;
5951;SDS011;3001;42.622;23.194;2023-07-13T00:33:25;3.40;;;3.30;;
5951;SDS011;3001;42.622;23.194;2023-07-13T00:35:53;3.53;;;3.33;;
5951;SDS011;3001;42.622;23.194;2023-07-13T00:38:21;6.40;;;3.63;;
5951;SDS011;3001;42.622;23.194;2023-07-13T00:40:49;3.27;;;3.03;;
5951;SDS011;3001;42.622;23.194;2023-07-13T00:43:16;3.43;;;3.23;;
5951;SDS011;3001;42.622;23.194;2023-07-13T00:48:39;4.90;;;4.10;;
5951;SDS011;3001;42.622;23.194;2023-07-13T00:51:07;4.00;;;3.80;;
5951;SDS011;3001;42.622;23.194;2023-07-13T00:53:34;3.73;;;3.53;;
5951;SDS011;3001;42.622;23.194;2023-07-13T00:56:02;4.43;;;4.20;;
5951;SDS011;3001;42.622;23.194;2023-07-13T00:58:30;4.00;;;3.70;;
5951;SDS011;3001;42.622;23.194;2023-07-13T01:00:57;4.07;;;3.77;;
5951;SDS011;3001;42.622;23.194;2023-07-13T01:03:24;3.77;;;3.57;;
5951;SDS011;3001;42.622;23.194;2023-07-13T01:05:50;3.97;;;3.70;;
5951;SDS011;3001;42.622;23.194;2023-07-13T01:08:19;3.90;;;3.60;;
5951;SDS011;3001;42.622;23.194;2023-07-13T01:10:52;3.63;;;3.43;;
5951;SDS011;3001;42.622;23.194;2023-07-13T01:13:21;4.23;;;4.03;;
5951;SDS011;3001;42.622;23.194;2023-07-13T01:15:49;3.77;;;3.47;;
5951;SDS011;3001;42.622;23.194;2023-07-13T01:18:17;3.87;;;3.57;;
5951;SDS011;3001;42.622;23.194;2023-07-13T01:20:50;4.10;;;3.70;;
5951;SDS011;3001;42.622;23.194;2023-07-13T01:23:17;4.27;;;3.97;;
5951;SDS011;3001;42.622;23.194;2023-07-13T01:25:44;4.40;;;4.00;;
5951;SDS011;3001;42.622;23.194;2023-07-13T01:28:10;4.43;;;3.97;;
5951;SDS011;3001;42.622;23.194;2023-07-13T01:30:37;4.63;;;4.33;;
5951;SDS011;3001;42.622;23.194;2023-07-13T01:33:05;4.60;;;4.20;;
5951;SDS011;3001;42.622;23.194;2023-07-13T01:35:32;4.70;;;3.60;;
5951;SDS011;3001;42.622;23.194;2023-07-13T01:38:00;4.70;;;4.40;;
5951;SDS011;3001;42.622;23.194;2023-07-13T01:40:27;4.00;;;3.70;;
5951;SDS011;3001;42.622;23.194;2023-07-13T01:42:55;3.90;;;3.70;;
5951;SDS011;3001;42.622;23.194;2023-07-13T01:45:22;4.70;;;4.30;;
5951;SDS011;3001;42.622;23.194;2023-07-13T01:47:48;4.00;;;3.80;;
5951;SDS011;3001;42.622;23.194;2023-07-13T01:50:15;3.90;;;3.50;;
5951;SDS011;3001;42.622;23.194;2023-07-13T01:52:42;4.33;;;4.03;;
5951;SDS011;3001;42.622;23.194;2023-07-13T01:55:10;4.73;;;4.43;;
5951;SDS011;3001;42.622;23.194;2023-07-13T01:57:37;4.53;;;4.23;;
5951;SDS011;3001;42.622;23.194;2023-07-13T02:00:04;4.27;;;3.90;;
5951;SDS011;3001;42.622;23.194;2023-07-13T02:02:32;4.87;;;4.30;;
5951;SDS011;3001;42.622;23.194;2023-07-13T02:04:59;4.33;;;4.13;;
5951;SDS011;3001;42.622;23.194;2023-07-13T02:07:26;4.10;;;3.90;;
5951;SDS011;3001;42.622;23.194;2023-07-13T02:09:52;4.70;;;4.50;;
5951;SDS011;3001;42.622;23.194;2023-07-13T02:12:20;4.57;;;4.27;;
5951;SDS011;3001;42.622;23.194;2023-07-13T02:14:47;4.23;;;4.00;;
5951;SDS011;3001;42.622;23.194;2023-07-13T02:17:14;5.20;;;4.53;;
5951;SDS011;3001;42.622;23.194;2023-07-13T02:19:40;4.27;;;3.97;;
5951;SDS011;3001;42.622;23.194;2023-07-13T02:22:07;4.50;;;4.20;;
5951;SDS011;3001;42.622;23.194;2023-07-13T02:24:34;4.20;;;3.80;;
5951;SDS011;3001;42.622;23.194;2023-07-13T02:27:00;6.57;;;4.13;;
5951;SDS011;3001;42.622;23.194;2023-07-13T02:29:28;4.47;;;4.27;;
5951;SDS011;3001;42.622;23.194;2023-07-13T02:31:55;4.87;;;4.47;;
5951;SDS011;3001;42.622;23.194;2023-07-13T02:34:23;4.63;;;4.27;;
5951;SDS011;3001;42.622;23.194;2023-07-13T02:36:49;4.70;;;4.40;;
5951;SDS011;3001;42.622;23.194;2023-07-13T02:39:16;5.83;;;4.57;;
5951;SDS011;3001;42.622;23.194;2023-07-13T02:41:43;4.20;;;4.00;;
5951;SDS011;3001;42.622;23.194;2023-07-13T02:44:09;5.10;;;4.63;;
5951;SDS011;3001;42.622;23.194;2023-07-13T02:46:40;4.80;;;4.50;;
5951;SDS011;3001;42.622;23.194;2023-07-13T02:49:06;5.00;;;4.60;;
5951;SDS011;3001;42.622;23.194;2023-07-13T02:51:33;6.43;;;5.07;;
5951;SDS011;3001;42.622;23.194;2023-07-13T02:54:00;4.73;;;4.40;;
5951;SDS011;3001;42.622;23.194;2023-07-13T02:56:27;5.23;;;4.83;;
5951;SDS011;3001;42.622;23.194;2023-07-13T02:58:55;4.13;;;3.93;;
5951;SDS011;3001;42.622;23.194;2023-07-13T03:01:22;5.03;;;4.73;;
5951;SDS011;3001;42.622;23.194;2023-07-13T03:03:51;5.47;;;4.97;;
5951;SDS011;3001;42.622;23.194;2023-07-13T03:06:18;4.80;;;4.57;;
5951;SDS011;3001;42.622;23.194;2023-07-13T03:08:46;4.77;;;4.47;;
5951;SDS011;3001;42.622;23.194;2023-07-13T03:11:15;5.10;;;4.80;;
5951;SDS011;3001;42.622;23.194;2023-07-13T03:13:43;4.90;;;4.60;;
5951;SDS011;3001;42.622;23.194;2023-07-13T03:16:10;5.10;;;4.90;;
5951;SDS011;3001;42.622;23.194;2023-07-13T03:18:37;4.93;;;4.63;;
5951;SDS011;3001;42.622;23.194;2023-07-13T03:21:06;5.10;;;4.80;;
5951;SDS011;3001;42.622;23.194;2023-07-13T03:23:33;5.23;;;4.93;;
5951;SDS011;3001;42.622;23.194;2023-07-13T03:26:03;4.97;;;4.77;;
5951;SDS011;3001;42.622;23.194;2023-07-13T03:28:31;5.10;;;4.47;;
5951;SDS011;3001;42.622;23.194;2023-07-13T03:30:59;5.00;;;4.43;;
5951;SDS011;3001;42.622;23.194;2023-07-13T03:33:26;5.53;;;5.23;;
5951;SDS011;3001;42.622;23.194;2023-07-13T03:35:53;5.17;;;4.87;;
5951;SDS011;3001;42.622;23.194;2023-07-13T03:38:21;5.70;;;5.10;;
5951;SDS011;3001;42.622;23.194;2023-07-13T03:40:48;6.57;;;5.50;;
5951;SDS011;3001;42.622;23.194;2023-07-13T03:43:14;5.50;;;5.00;;
5951;SDS011;3001;42.622;23.194;2023-07-13T03:45:41;5.80;;;5.30;;
5951;SDS011;3001;42.622;23.194;2023-07-13T03:48:08;5.87;;;5.37;;
5951;SDS011;3001;42.622;23.194;2023-07-13T03:50:35;5.87;;;5.57;;
5951;SDS011;3001;42.622;23.194;2023-07-13T03:53:03;6.50;;;6.00;;
5951;SDS011;3001;42.622;23.194;2023-07-13T03:55:31;6.07;;;5.67;;
5951;SDS011;3001;42.622;23.194;2023-07-13T03:57:59;5.70;;;5.40;;
5951;SDS011;3001;42.622;23.194;2023-07-13T04:00:27;6.20;;;5.70;;
5951;SDS011;3001;42.622;23.194;2023-07-13T04:02:53;6.57;;;5.93;;
5951;SDS011;3001;42.622;23.194;2023-07-13T04:05:20;6.23;;;5.67;;
5951;SDS011;3001;42.622;23.194;2023-07-13T04:07:47;6.33;;;5.40;;
5951;SDS011;3001;42.622;23.194;2023-07-13T04:10:13;6.53;;;6.10;;
5951;SDS011;3001;42.622;23.194;2023-07-13T04:12:41;6.10;;;5.60;;
5951;SDS011;3001;42.622;23.194;2023-07-13T04:15:08;6.33;;;5.93;;
5951;SDS011;3001;42.622;23.194;2023-07-13T04:17:35;7.10;;;6.47;;
5951;SDS011;3001;42.622;23.194;2023-07-13T04:20:02;6.90;;;6.20;;
5951;SDS011;3001;42.622;23.194;2023-07-13T04:22:29;6.63;;;6.10;;
5951;SDS011;3001;42.622;23.194;2023-07-13T04:24:56;6.80;;;6.30;;
5951;SDS011;3001;42.622;23.194;2023-07-13T04:27:23;5.90;;;5.60;;
5951;SDS011;3001;42.622;23.194;2023-07-13T04:29:51;6.40;;;6.00;;
5951;SDS011;3001;42.622;23.194;2023-07-13T04:32:17;6.20;;;5.77;;
5951;SDS011;3001;42.622;23.194;2023-07-13T04:34:44;6.03;;;5.63;;
5951;SDS011;3001;42.622;23.194;2023-07-13T04:37:11;6.77;;;6.07;;
5951;SDS011;3001;42.622;23.194;2023-07-13T04:39:37;7.00;;;6.40;;
5951;SDS011;3001;42.622;23.194;2023-07-13T04:42:04;6.90;;;6.40;;
5951;SDS011;3001;42.622;23.194;2023-07-13T04:44:32;7.30;;;6.00;;
5951;SDS011;3001;42.622;23.194;2023-07-13T04:47:00;6.63;;;6.00;;
5951;SDS011;3001;42.622;23.194;2023-07-13T04:49:26;6.67;;;6.13;;
5951;SDS011;3001;42.622;23.194;2023-07-13T04:51:53;7.13;;;6.57;;
5951;SDS011;3001;42.622;23.194;2023-07-13T04:54:20;7.70;;;6.77;;
5951;SDS011;3001;42.622;23.194;2023-07-13T04:56:47;6.53;;;6.07;;
5951;SDS011;3001;42.622;23.194;2023-07-13T04:59:14;6.77;;;6.27;;
5951;SDS011;3001;42.622;23.194;2023-07-13T05:01:41;6.80;;;6.40;;
5951;SDS011;3001;42.622;23.194;2023-07-13T05:04:09;7.50;;;6.90;;
5951;SDS011;3001;42.622;23.194;2023-07-13T05:06:35;6.63;;;6.20;;
5951;SDS011;3001;42.622;23.194;2023-07-13T05:09:02;7.00;;;6.47;;
5951;SDS011;3001;42.622;23.194;2023-07-13T05:11:29;7.47;;;6.90;;
5951;SDS011;3001;42.622;23.194;2023-07-13T05:13:56;7.03;;;6.33;;
5951;SDS011;3001;42.622;23.194;2023-07-13T05:16:22;6.53;;;6.07;;
5951;SDS011;3001;42.622;23.194;2023-07-13T05:18:49;7.43;;;6.90;;
5951;SDS011;3001;42.622;23.194;2023-07-13T05:21:17;8.10;;;6.93;;
5951;SDS011;3001;42.622;23.194;2023-07-13T05:23:44;8.30;;;7.50;;
5951;SDS011;3001;42.622;23.194;2023-07-13T05:26:11;8.03;;;7.00;;
5951;SDS011;3001;42.622;23.194;2023-07-13T05:28:38;6.50;;;5.90;;
5951;SDS011;3001;42.622;23.194;2023-07-13T05:31:06;7.03;;;6.37;;
5951;SDS011;3001;42.622;23.194;2023-07-13T05:33:33;6.07;;;5.70;;
5951;SDS011;3001;42.622;23.194;2023-07-13T05:36:00;7.33;;;6.60;;
5951;SDS011;3001;42.622;23.194;2023-07-13T05:38:28;6.67;;;6.27;;
5951;SDS011;3001;42.622;23.194;2023-07-13T05:40:55;8.40;;;7.47;;
5951;SDS011;3001;42.622;23.194;2023-07-13T05:43:22;7.97;;;7.37;;
5951;SDS011;3001;42.622;23.194;2023-07-13T05:45:51;8.93;;;8.03;;
5951;SDS011;3001;42.622;23.194;2023-07-13T05:48:18;9.23;;;7.20;;
5951;SDS011;3001;42.622;23.194;2023-07-13T05:50:45;8.07;;;6.97;;
5951;SDS011;3001;42.622;23.194;2023-07-13T05:53:12;10.70;;;8.47;;
5951;SDS011;3001;42.622;23.194;2023-07-13T05:55:42;10.17;;;7.80;;
5951;SDS011;3001;42.622;23.194;2023-07-13T05:58:09;9.40;;;8.50;;
5951;SDS011;3001;42.622;23.194;2023-07-13T06:00:37;8.23;;;7.50;;
5951;SDS011;3001;42.622;23.194;2023-07-13T06:03:04;9.83;;;7.93;;
5951;SDS011;3001;42.622;23.194;2023-07-13T06:05:31;12.07;;;8.03;;
5951;SDS011;3001;42.622;23.194;2023-07-13T06:07:59;9.80;;;8.27;;
5951;SDS011;3001;42.622;23.194;2023-07-13T06:10:26;11.07;;;8.67;;
5951;SDS011;3001;42.622;23.194;2023-07-13T06:12:54;19.00;;;8.20;;
5951;SDS011;3001;42.622;23.194;2023-07-13T06:15:21;21.43;;;10.27;;
5951;SDS011;3001;42.622;23.194;2023-07-13T06:17:47;20.53;;;10.00;;
5951;SDS011;3001;42.622;23.194;2023-07-13T06:20:14;20.20;;;10.60;;
5951;SDS011;3001;42.622;23.194;2023-07-13T06:22:41;20.70;;;9.93;;
5951;SDS011;3001;42.622;23.194;2023-07-13T06:25:08;20.00;;;11.07;;
5951;SDS011;3001;42.622;23.194;2023-07-13T06:27:35;13.93;;;10.30;;
5951;SDS011;3001;42.622;23.194;2023-07-13T06:30:03;15.37;;;9.73;;
5951;SDS011;3001;42.622;23.194;2023-07-13T06:32:30;12.97;;;9.43;;
5951;SDS011;3001;42.622;23.194;2023-07-13T06:34:57;21.27;;;9.87;;
5951;SDS011;3001;42.622;23.194;2023-07-13T06:37:24;15.50;;;10.23;;
5951;SDS011;3001;42.622;23.194;2023-07-13T06:39:50;17.10;;;9.15;;
5951;SDS011;3001;42.622;23.194;2023-07-13T06:42:17;13.57;;;10.50;;
5951;SDS011;3001;42.622;23.194;2023-07-13T06:44:44;18.30;;;10.48;;
5951;SDS011;3001;42.622;23.194;2023-07-13T06:47:12;13.95;;;9.60;;
5951;SDS011;3001;42.622;23.194;2023-07-13T06:49:38;13.27;;;8.83;;
5951;SDS011;3001;42.622;23.194;2023-07-13T06:52:06;19.65;;;10.73;;
5951;SDS011;3001;42.622;23.194;2023-07-13T06:54:32;15.55;;;9.32;;
5951;SDS011;3001;42.622;23.194;2023-07-13T06:57:00;9.00;;;7.77;;
5951;SDS011;3001;42.622;23.194;2023-07-13T06:59:26;9.47;;;8.47;;
5951;SDS011;3001;42.622;23.194;2023-07-13T07:01:53;11.48;;;8.40;;
5951;SDS011;3001;42.622;23.194;2023-07-13T07:04:21;14.85;;;9.27;;
5951;SDS011;3001;42.622;23.194;2023-07-13T07:06:48;16.20;;;10.00;;
5951;SDS011;3001;42.622;23.194;2023-07-13T07:09:14;13.55;;;9.77;;
5951;SDS011;3001;42.622;23.194;2023-07-13T07:11:42;13.82;;;9.77;;
5951;SDS011;3001;42.622;23.194;2023-07-13T07:14:09;13.00;;;9.48;;
5951;SDS011;3001;42.622;23.194;2023-07-13T07:16:35;13.30;;;9.45;;
5951;SDS011;3001;42.622;23.194;2023-07-13T07:19:02;12.75;;;9.00;;
5951;SDS011;3001;42.622;23.194;2023-07-13T07:21:30;14.60;;;8.60;;
5951;SDS011;3001;42.622;23.194;2023-07-13T07:23:57;8.70;;;7.78;;
5951;SDS011;3001;42.622;23.194;2023-07-13T07:26:25;9.52;;;7.38;;
5951;SDS011;3001;42.622;23.194;2023-07-13T07:28:51;16.27;;;7.75;;
5951;SDS011;3001;42.622;23.194;2023-07-13T07:31:18;8.15;;;7.25;;
5951;SDS011;3001;42.622;23.194;2023-07-13T07:33:45;11.43;;;7.30;;
5951;SDS011;3001;42.622;23.194;2023-07-13T07:36:11;9.05;;;7.10;;
5951;SDS011;3001;42.622;23.194;2023-07-13T07:38:40;9.32;;;7.50;;
5951;SDS011;3001;42.622;23.194;2023-07-13T07:41:06;7.57;;;6.15;;
5951;SDS011;3001;42.622;23.194;2023-07-13T07:43:33;5.63;;;5.15;;
5951;SDS011;3001;42.622;23.194;2023-07-13T07:46:00;4.85;;;4.45;;
5951;SDS011;3001;42.622;23.194;2023-07-13T07:48:26;4.50;;;4.20;;
5951;SDS011;3001;42.622;23.194;2023-07-13T07:50:53;4.75;;;4.45;;
5951;SDS011;3001;42.622;23.194;2023-07-13T07:53:20;5.45;;;5.15;;
5951;SDS011;3001;42.622;23.194;2023-07-13T07:55:48;6.50;;;5.03;;
5951;SDS011;3001;42.622;23.194;2023-07-13T07:58:15;5.10;;;4.80;;
5951;SDS011;3001;42.622;23.194;2023-07-13T08:00:41;4.97;;;4.40;;
5951;SDS011;3001;42.622;23.194;2023-07-13T08:03:08;5.32;;;5.03;;
5951;SDS011;3001;42.622;23.194;2023-07-13T08:05:35;4.65;;;4.35;;
5951;SDS011;3001;42.622;23.194;2023-07-13T08:08:02;4.68;;;4.38;;
5951;SDS011;3001;42.622;23.194;2023-07-13T08:10:29;4.35;;;4.07;;
5951;SDS011;3001;42.622;23.194;2023-07-13T08:12:58;5.57;;;4.15;;
5951;SDS011;3001;42.622;23.194;2023-07-13T08:15:24;5.00;;;4.32;;
5951;SDS011;3001;42.622;23.194;2023-07-13T08:17:51;3.92;;;3.72;;
5951;SDS011;3001;42.622;23.194;2023-07-13T08:20:18;6.00;;;3.75;;
5951;SDS011;3001;42.622;23.194;2023-07-13T08:22:44;4.00;;;3.70;;
5951;SDS011;3001;42.622;23.194;2023-07-13T08:25:11;4.50;;;4.10;;
5951;SDS011;3001;42.622;23.194;2023-07-13T08:27:38;4.55;;;4.15;;
5951;SDS011;3001;42.622;23.194;2023-07-13T08:30:06;4.53;;;4.00;;
5951;SDS011;3001;42.622;23.194;2023-07-13T08:32:36;4.65;;;4.18;;
5951;SDS011;3001;42.622;23.194;2023-07-13T08:35:03;4.47;;;4.15;;
5951;SDS011;3001;42.622;23.194;2023-07-13T08:37:31;4.40;;;3.75;;
5951;SDS011;3001;42.622;23.194;2023-07-13T08:39:57;6.18;;;4.63;;
5951;SDS011;3001;42.622;23.194;2023-07-13T08:42:28;4.18;;;3.88;;
5951;SDS011;3001;42.622;23.194;2023-07-13T08:45:07;4.03;;;3.83;;
5951;SDS011;3001;42.622;23.194;2023-07-13T08:47:44;4.18;;;3.97;;
5951;SDS011;3001;42.622;23.194;2023-07-13T08:50:14;3.83;;;3.63;;
5951;SDS011;3001;42.622;23.194;2023-07-13T08:52:45;4.47;;;4.18;;
5951;SDS011;3001;42.622;23.194;2023-07-13T08:55:13;5.28;;;3.95;;
5951;SDS011;3001;42.622;23.194;2023-07-13T08:57:45;4.90;;;4.32;;
5951;SDS011;3001;42.622;23.194;2023-07-13T09:00:19;4.65;;;4.35;;
5951;SDS011;3001;42.622;23.194;2023-07-13T09:02:46;5.03;;;4.72;;
5951;SDS011;3001;42.622;23.194;2023-07-13T09:05:22;4.85;;;4.50;;
5951;SDS011;3001;42.622;23.194;2023-07-13T09:08:05;5.53;;;4.95;;
5951;SDS011;3001;42.622;23.194;2023-07-13T09:10:44;5.15;;;4.75;;
5951;SDS011;3001;42.622;23.194;2023-07-13T09:13:17;4.85;;;4.55;;
5951;SDS011;3001;42.622;23.194;2023-07-13T09:15:54;5.15;;;4.78;;
5951;SDS011;3001;42.622;23.194;2023-07-13T09:18:23;4.80;;;4.50;;
5951;SDS011;3001;42.622;23.194;2023-07-13T09:20:54;9.73;;;5.28;;
5951;SDS011;3001;42.622;23.194;2023-07-13T09:23:26;4.68;;;4.38;;
5951;SDS011;3001;42.622;23.194;2023-07-13T09:25:56;4.97;;;4.65;;
5951;SDS011;3001;42.622;23.194;2023-07-13T09:28:29;4.72;;;4.40;;
5951;SDS011;3001;42.622;23.194;2023-07-13T09:31:05;5.22;;;4.82;;
5951;SDS011;3001;42.622;23.194;2023-07-13T09:33:35;7.63;;;7.18;;
5951;SDS011;3001;42.622;23.194;2023-07-13T09:36:03;6.70;;;6.20;;
5951;SDS011;3001;42.622;23.194;2023-07-13T09:38:48;5.75;;;4.88;;
5951;SDS011;3001;42.622;23.194;2023-07-13T09:41:19;6.10;;;5.53;;
5951;SDS011;3001;42.622;23.194;2023-07-13T09:44:08;5.57;;;4.55;;
5951;SDS011;3001;42.622;23.194;2023-07-13T09:46:39;5.63;;;5.20;;
5951;SDS011;3001;42.622;23.194;2023-07-13T09:49:10;5.05;;;4.65;;
5951;SDS011;3001;42.622;23.194;2023-07-13T09:51:38;6.40;;;5.18;;
5951;SDS011;3001;42.622;23.194;2023-07-13T09:54:05;5.15;;;4.85;;
5951;SDS011;3001;42.622;23.194;2023-07-13T09:56:31;6.40;;;4.80;;
5951;SDS011;3001;42.622;23.194;2023-07-13T09:58:58;8.85;;;4.30;;
5951;SDS011;3001;42.622;23.194;2023-07-13T10:01:31;5.47;;;5.07;;
5951;SDS011;3001;42.622;23.194;2023-07-13T10:04:00;4.78;;;4.40;;
5951;SDS011;3001;42.622;23.194;2023-07-13T10:06:28;4.88;;;4.47;;
5951;SDS011;3001;42.622;23.194;2023-07-13T10:08:56;4.80;;;4.50;;
5951;SDS011;3001;42.622;23.194;2023-07-13T10:11:23;6.75;;;4.90;;
5951;SDS011;3001;42.622;23.194;2023-07-13T10:13:54;4.85;;;4.47;;
5951;SDS011;3001;42.622;23.194;2023-07-13T10:16:25;4.53;;;4.13;;
5951;SDS011;3001;42.622;23.194;2023-07-13T10:18:58;4.68;;;4.38;;
5951;SDS011;3001;42.622;23.194;2023-07-13T10:21:28;4.72;;;4.43;;
5951;SDS011;3001;42.622;23.194;2023-07-13T10:24:00;6.07;;;4.90;;
5951;SDS011;3001;42.622;23.194;2023-07-13T10:26:33;6.40;;;5.28;;
5951;SDS011;3001;42.622;23.194;2023-07-13T10:29:01;5.35;;;4.90;;
5951;SDS011;3001;42.622;23.194;2023-07-13T10:31:34;5.43;;;4.90;;
5951;SDS011;3001;42.622;23.194;2023-07-13T10:34:03;4.80;;;4.50;;
5951;SDS011;3001;42.622;23.194;2023-07-13T10:36:32;4.95;;;4.60;;
5951;SDS011;3001;42.622;23.194;2023-07-13T10:39:05;6.40;;;5.00;;
5951;SDS011;3001;42.622;23.194;2023-07-13T10:41:34;5.00;;;4.80;;
5951;SDS011;3001;42.622;23.194;2023-07-13T10:44:05;5.57;;;5.10;;
5951;SDS011;3001;42.622;23.194;2023-07-13T10:46:41;6.28;;;5.30;;
5951;SDS011;3001;42.622;23.194;2023-07-13T10:49:10;5.65;;;5.25;;
5951;SDS011;3001;42.622;23.194;2023-07-13T10:51:39;5.57;;;4.82;;
5951;SDS011;3001;42.622;23.194;2023-07-13T10:54:19;5.63;;;5.03;;
5951;SDS011;3001;42.622;23.194;2023-07-13T10:56:52;5.50;;;5.13;;
5951;SDS011;3001;42.622;23.194;2023-07-13T10:59:33;5.53;;;5.18;;
5951;SDS011;3001;42.622;23.194;2023-07-13T11:02:08;5.40;;;4.90;;
5951;SDS011;3001;42.622;23.194;2023-07-13T11:04:41;5.70;;;5.20;;
5951;SDS011;3001;42.622;23.194;2023-07-13T11:07:17;5.78;;;5.22;;
5951;SDS011;3001;42.622;23.194;2023-07-13T11:09:49;5.18;;;4.80;;
5951;SDS011;3001;42.622;23.194;2023-07-13T11:12:28;6.25;;;5.43;;
5951;SDS011;3001;42.622;23.194;2023-07-13T11:15:13;5.35;;;4.85;;
5951;SDS011;3001;42.622;23.194;2023-07-13T11:17:47;5.82;;;4.82;;
5951;SDS011;3001;42.622;23.194;2023-07-13T11:20:20;6.35;;;5.40;;
5951;SDS011;3001;42.622;23.194;2023-07-13T11:22:51;5.60;;;5.30;;
5951;SDS011;3001;42.622;23.194;2023-07-13T11:25:33;5.68;;;5.38;;
5951;SDS011;3001;42.622;23.194;2023-07-13T11:28:07;5.22;;;4.82;;
5951;SDS011;3001;42.622;23.194;2023-07-13T11:30:43;5.20;;;4.88;;
5951;SDS011;3001;42.622;23.194;2023-07-13T11:33:15;5.28;;;4.72;;
5951;SDS011;3001;42.622;23.194;2023-07-13T11:35:46;5.88;;;4.97;;
5951;SDS011;3001;42.622;23.194;2023-07-13T11:38:19;6.13;;;5.72;;
5951;SDS011;3001;42.622;23.194;2023-07-13T11:40:48;5.10;;;4.78;;
5951;SDS011;3001;42.622;23.194;2023-07-13T11:43:19;4.72;;;4.53;;
5951;SDS011;3001;42.622;23.194;2023-07-13T11:45:48;4.88;;;4.32;;
5951;SDS011;3001;42.622;23.194;2023-07-13T11:48:23;5.47;;;5.18;;
5951;SDS011;3001;42.622;23.194;2023-07-13T11:50:53;5.35;;;4.60;;
5951;SDS011;3001;42.622;23.194;2023-07-13T11:53:26;5.00;;;4.63;;
5951;SDS011;3001;42.622;23.194;2023-07-13T11:55:55;5.50;;;4.70;;
5951;SDS011;3001;42.622;23.194;2023-07-13T11:58:23;4.72;;;4.53;;
5951;SDS011;3001;42.622;23.194;2023-07-13T12:00:53;4.97;;;4.50;;
5951;SDS011;3001;42.622;23.194;2023-07-13T12:03:24;5.15;;;4.75;;
5951;SDS011;3001;42.622;23.194;2023-07-13T12:05:55;5.00;;;4.55;;
5951;SDS011;3001;42.622;23.194;2023-07-13T12:08:24;5.07;;;4.25;;
5951;SDS011;3001;42.622;23.194;2023-07-13T12:11:03;7.80;;;4.95;;
5951;SDS011;3001;42.622;23.194;2023-07-13T12:13:35;5.20;;;4.80;;
5951;SDS011;3001;42.622;23.194;2023-07-13T12:16:08;6.20;;;4.78;;
5951;SDS011;3001;42.622;23.194;2023-07-13T12:18:38;5.50;;;5.07;;
5951;SDS011;3001;42.622;23.194;2023-07-13T12:21:10;5.35;;;4.60;;
5951;SDS011;3001;42.622;23.194;2023-07-13T12:23:42;6.57;;;4.80;;
5951;SDS011;3001;42.622;23.194;2023-07-13T12:26:10;4.80;;;4.32;;
5951;SDS011;3001;42.622;23.194;2023-07-13T12:28:38;5.30;;;4.80;;
5951;SDS011;3001;42.622;23.194;2023-07-13T12:31:30;10.38;;;4.65;;
5951;SDS011;3001;42.622;23.194;2023-07-13T12:34:00;4.75;;;4.45;;
5951;SDS011;3001;42.622;23.194;2023-07-13T12:36:32;4.45;;;4.05;;
5951;SDS011;3001;42.622;23.194;2023-07-13T12:39:06;5.35;;;4.50;;
5951;SDS011;3001;42.622;23.194;2023-07-13T12:41:40;5.03;;;4.70;;
5951;SDS011;3001;42.622;23.194;2023-07-13T12:44:11;5.05;;;4.75;;
5951;SDS011;3001;42.622;23.194;2023-07-13T12:46:39;4.60;;;4.20;;
5951;SDS011;3001;42.622;23.194;2023-07-13T12:49:06;5.22;;;4.75;;
5951;SDS011;3001;42.622;23.194;2023-07-13T12:51:34;5.53;;;4.60;;
5951;SDS011;3001;42.622;23.194;2023-07-13T12:54:11;6.18;;;4.97;;
5951;SDS011;3001;42.622;23.194;2023-07-13T12:56:41;4.75;;;4.25;;
5951;SDS011;3001;42.622;23.194;2023-07-13T12:59:08;7.32;;;5.28;;
5951;SDS011;3001;42.622;23.194;2023-07-13T13:01:43;7.35;;;5.38;;
5951;SDS011;3001;42.622;23.194;2023-07-13T13:04:09;7.15;;;5.63;;
5951;SDS011;3001;42.622;23.194;2023-07-13T13:06:38;7.00;;;4.88;;
5951;SDS011;3001;42.622;23.194;2023-07-13T13:09:09;10.25;;;4.82;;
5951;SDS011;3001;42.622;23.194;2023-07-13T13:11:38;4.75;;;4.30;;
5951;SDS011;3001;42.622;23.194;2023-07-13T13:14:05;6.47;;;4.63;;
5951;SDS011;3001;42.622;23.194;2023-07-13T13:16:33;5.05;;;4.57;;
5951;SDS011;3001;42.622;23.194;2023-07-13T13:19:05;4.43;;;4.07;;
5951;SDS011;3001;42.622;23.194;2023-07-13T13:21:39;6.53;;;4.60;;
5951;SDS011;3001;42.622;23.194;2023-07-13T13:24:10;6.15;;;4.80;;
5951;SDS011;3001;42.622;23.194;2023-07-13T13:26:38;6.63;;;5.05;;
5951;SDS011;3001;42.622;23.194;2023-07-13T13:29:09;8.80;;;5.03;;
5951;SDS011;3001;42.622;23.194;2023-07-13T13:31:39;4.78;;;4.47;;
5951;SDS011;3001;42.622;23.194;2023-07-13T13:34:07;5.03;;;4.60;;
5951;SDS011;3001;42.622;23.194;2023-07-13T13:36:35;4.80;;;4.38;;
5951;SDS011;3001;42.622;23.194;2023-07-13T13:39:02;5.45;;;4.50;;
5951;SDS011;3001;42.622;23.194;2023-07-13T13:41:33;5.78;;;4.40;;
5951;SDS011;3001;42.622;23.194;2023-07-13T13:43:59;6.35;;;4.50;;
5951;SDS011;3001;42.622;23.194;2023-07-13T13:46:26;4.70;;;4.10;;
5951;SDS011;3001;42.622;23.194;2023-07-13T13:48:54;6.28;;;4.40;;
5951;SDS011;3001;42.622;23.194;2023-07-13T13:51:22;6.53;;;5.07;;
5951;SDS011;3001;42.622;23.194;2023-07-13T13:53:50;5.82;;;5.20;;
5951;SDS011;3001;42.622;23.194;2023-07-13T13:56:18;4.60;;;4.25;;
5951;SDS011;3001;42.622;23.194;2023-07-13T13:58:47;6.80;;;5.60;;
5951;SDS011;3001;42.622;23.194;2023-07-13T14:01:14;5.75;;;5.00;;
5951;SDS011;3001;42.622;23.194;2023-07-13T14:03:43;5.32;;;4.72;;
5951;SDS011;3001;42.622;23.194;2023-07-13T14:06:11;6.40;;;4.75;;
5951;SDS011;3001;42.622;23.194;2023-07-13T14:08:38;5.65;;;4.30;;
5951;SDS011;3001;42.622;23.194;2023-07-13T14:11:07;5.45;;;5.05;;
5951;SDS011;3001;42.622;23.194;2023-07-13T14:13:37;5.00;;;4.50;;
5951;SDS011;3001;42.622;23.194;2023-07-13T14:16:10;5.13;;;4.72;;
5951;SDS011;3001;42.622;23.194;2023-07-13T14:18:38;5.22;;;4.65;;
5951;SDS011;3001;42.622;23.194;2023-07-13T14:21:08;5.68;;;5.13;;
5951;SDS011;3001;42.622;23.194;2023-07-13T14:23:38;6.03;;;5.43;;
5951;SDS011;3001;42.622;23.194;2023-07-13T14:26:07;5.13;;;4.55;;
5951;SDS011;3001;42.622;23.194;2023-07-13T14:28:37;5.43;;;5.03;;
5951;SDS011;3001;42.622;23.194;2023-07-13T14:31:07;5.57;;;5.20;;
5951;SDS011;3001;42.622;23.194;2023-07-13T14:33:35;4.65;;;4.32;;
5951;SDS011;3001;42.622;23.194;2023-07-13T14:36:02;12.10;;;4.70;;
5951;SDS011;3001;42.622;23.194;2023-07-13T14:38:35;5.18;;;4.65;;
5951;SDS011;3001;42.622;23.194;2023-07-13T14:41:02;6.38;;;5.43;;
5951;SDS011;3001;42.622;23.194;2023-07-13T14:43:30;5.30;;;5.00;;
5951;SDS011;3001;42.622;23.194;2023-07-13T14:45:56;6.95;;;5.10;;
5951;SDS011;3001;42.622;23.194;2023-07-13T14:48:23;5.20;;;4.78;;
5951;SDS011;3001;42.622;23.194;2023-07-13T14:50:53;5.57;;;4.40;;
5951;SDS011;3001;42.622;23.194;2023-07-13T14:53:21;5.70;;;4.35;;
5951;SDS011;3001;42.622;23.194;2023-07-13T14:55:47;5.35;;;4.68;;
5951;SDS011;3001;42.622;23.194;2023-07-13T14:58:14;7.93;;;4.38;;
5951;SDS011;3001;42.622;23.194;2023-07-13T15:00:41;4.00;;;3.70;;
5951;SDS011;3001;42.622;23.194;2023-07-13T15:03:11;7.40;;;4.50;;
5951;SDS011;3001;42.622;23.194;2023-07-13T15:05:44;4.80;;;3.90;;
5951;SDS011;3001;42.622;23.194;2023-07-13T15:08:12;5.50;;;4.32;;
5951;SDS011;3001;42.622;23.194;2023-07-13T15:10:39;5.47;;;4.50;;
5951;SDS011;3001;42.622;23.194;2023-07-13T15:13:13;7.72;;;4.55;;